sensor_id;sensor_type;location;lat;lon;timestamp;temperature;humidity
20442;DHT22;10380;52.102;20.614;2023-04-01T00:01:01;10.20;99.90
20442;DHT22;10380;52.102;20.614;2023-04-01T00:03:31;10.20;99.90
20442;DHT22;10380;52.102;20.614;2023-04-01T00:05:59;10.20;99.90
20442;DHT22;10380;52.102;20.614;2023-04-01T00:08:27;10.20;99.90
20442;DHT22;10380;52.102;20.614;2023-04-01T00:10:55;10.10;99.90
20442;DHT22;10380;52.102;20.614;2023-04-01T00:13:25;10.10;99.90
20442;DHT22;10380;52.102;20.614;2023-04-01T00:15:54;10.10;99.90
20442;DHT22;10380;52.102;20.614;2023-04-01T00:18:23;10.10;99.90
20442;DHT22;10380;52.102;20.614;2023-04-01T00:20:51;10.00;99.90
20442;DHT22;10380;52.102;20.614;2023-04-01T00:23:19;10.00;99.90
20442;DHT22;10380;52.102;20.614;2023-04-01T00:25:47;9.90;99.90
20442;DHT22;10380;52.102;20.614;2023-04-01T00:28:17;9.90;99.90
20442;DHT22;10380;52.102;20.614;2023-04-01T00:30:44;9.90;99.90
20442;DHT22;10380;52.102;20.614;2023-04-01T00:33:11;9.90;99.90
20442;DHT22;10380;52.102;20.614;2023-04-01T00:35:53;9.90;99.90
20442;DHT22;10380;52.102;20.614;2023-04-01T00:38:22;9.90;99.90
20442;DHT22;10380;52.102;20.614;2023-04-01T00:40:49;9.90;99.90
20442;DHT22;10380;52.102;20.614;2023-04-01T00:43:19;9.90;99.90
20442;DHT22;10380;52.102;20.614;2023-04-01T00:45:49;9.80;99.90
20442;DHT22;10380;52.102;20.614;2023-04-01T00:48:25;9.80;99.90
20442;DHT22;10380;52.102;20.614;2023-04-01T00:53:43;9.90;99.90
20442;DHT22;10380;52.102;20.614;2023-04-01T00:59:11;9.90;99.90
20442;DHT22;10380;52.102;20.614;2023-04-01T01:01:40;9.90;99.90
20442;DHT22;10380;52.102;20.614;2023-04-01T01:04:18;9.90;99.90
20442;DHT22;10380;52.102;20.614;2023-04-01T01:06:50;9.90;99.90
20442;DHT22;10380;52.102;20.614;2023-04-01T01:11:57;9.90;99.90
20442;DHT22;10380;52.102;20.614;2023-04-01T01:15:09;9.80;99.90
20442;DHT22;10380;52.102;20.614;2023-04-01T01:33:45;9.80;99.90
20442;DHT22;10380;52.102;20.614;2023-04-01T01:35:57;9.70;99.90
20442;DHT22;10380;52.102;20.614;2023-04-01T01:38:31;9.70;99.90
20442;DHT22;10380;52.102;20.614;2023-04-01T01:41:00;9.70;99.90
20442;DHT22;10380;52.102;20.614;2023-04-01T01:43:39;9.80;99.90
20442;DHT22;10380;52.102;20.614;2023-04-01T01:46:14;9.70;99.90
20442;DHT22;10380;52.102;20.614;2023-04-01T01:48:43;9.70;99.90
20442;DHT22;10380;52.102;20.614;2023-04-01T01:51:11;9.70;99.90
20442;DHT22;10380;52.102;20.614;2023-04-01T01:53:38;9.70;99.90
20442;DHT22;10380;52.102;20.614;2023-04-01T01:56:05;9.70;99.90
20442;DHT22;10380;52.102;20.614;2023-04-01T01:58:35;9.70;99.90
20442;DHT22;10380;52.102;20.614;2023-04-01T02:01:11;9.70;99.90
20442;DHT22;10380;52.102;20.614;2023-04-01T02:03:39;9.70;99.90
20442;DHT22;10380;52.102;20.614;2023-04-01T02:06:10;9.60;99.90
20442;DHT22;10380;52.102;20.614;2023-04-01T02:08:47;9.60;99.90
20442;DHT22;10380;52.102;20.614;2023-04-01T02:11:17;9.70;99.90
20442;DHT22;10380;52.102;20.614;2023-04-01T02:13:55;9.70;99.90
20442;DHT22;10380;52.102;20.614;2023-04-01T02:16:27;9.70;99.90
20442;DHT22;10380;52.102;20.614;2023-04-01T02:18:58;9.70;99.90
20442;DHT22;10380;52.102;20.614;2023-04-01T02:21:29;9.70;99.90
20442;DHT22;10380;52.102;20.614;2023-04-01T02:24:01;9.70;99.90
20442;DHT22;10380;52.102;20.614;2023-04-01T02:26:29;9.70;99.90
20442;DHT22;10380;52.102;20.614;2023-04-01T02:28:57;9.70;99.90
20442;DHT22;10380;52.102;20.614;2023-04-01T02:31:25;9.70;99.90
20442;DHT22;10380;52.102;20.614;2023-04-01T02:33:53;9.70;99.90
20442;DHT22;10380;52.102;20.614;2023-04-01T02:36:21;9.70;99.90
20442;DHT22;10380;52.102;20.614;2023-04-01T02:38:49;9.60;99.90
20442;DHT22;10380;52.102;20.614;2023-04-01T02:41:17;9.60;99.90
20442;DHT22;10380;52.102;20.614;2023-04-01T02:43:44;9.70;99.90
20442;DHT22;10380;52.102;20.614;2023-04-01T02:46:11;9.60;99.90
20442;DHT22;10380;52.102;20.614;2023-04-01T02:48:38;9.60;99.90
20442;DHT22;10380;52.102;20.614;2023-04-01T02:51:05;9.60;99.90
20442;DHT22;10380;52.102;20.614;2023-04-01T02:53:32;9.60;99.90
20442;DHT22;10380;52.102;20.614;2023-04-01T02:55:59;9.60;99.90
20442;DHT22;10380;52.102;20.614;2023-04-01T02:58:28;9.60;99.90
20442;DHT22;10380;52.102;20.614;2023-04-01T03:00:55;9.60;99.90
20442;DHT22;10380;52.102;20.614;2023-04-01T03:03:22;9.60;99.90
20442;DHT22;10380;52.102;20.614;2023-04-01T03:05:49;9.60;99.90
20442;DHT22;10380;52.102;20.614;2023-04-01T03:08:17;9.60;99.90
20442;DHT22;10380;52.102;20.614;2023-04-01T03:10:44;9.60;99.90
20442;DHT22;10380;52.102;20.614;2023-04-01T03:13:11;9.50;99.90
20442;DHT22;10380;52.102;20.614;2023-04-01T03:15:38;9.50;99.90
20442;DHT22;10380;52.102;20.614;2023-04-01T03:18:06;9.50;99.90
20442;DHT22;10380;52.102;20.614;2023-04-01T03:20:33;9.50;99.90
20442;DHT22;10380;52.102;20.614;2023-04-01T03:23:00;9.60;99.90
20442;DHT22;10380;52.102;20.614;2023-04-01T03:25:26;9.60;99.90
20442;DHT22;10380;52.102;20.614;2023-04-01T03:27:55;9.60;99.90
20442;DHT22;10380;52.102;20.614;2023-04-01T03:30:23;9.50;99.90
20442;DHT22;10380;52.102;20.614;2023-04-01T03:32:50;9.50;99.90
20442;DHT22;10380;52.102;20.614;2023-04-01T03:35:18;9.50;99.90
20442;DHT22;10380;52.102;20.614;2023-04-01T03:37:45;9.50;99.90
20442;DHT22;10380;52.102;20.614;2023-04-01T03:40:11;9.50;99.90
20442;DHT22;10380;52.102;20.614;2023-04-01T03:42:39;9.50;99.90
20442;DHT22;10380;52.102;20.614;2023-04-01T03:45:07;9.40;99.90
20442;DHT22;10380;52.102;20.614;2023-04-01T03:47:34;9.50;99.90
20442;DHT22;10380;52.102;20.614;2023-04-01T03:50:06;9.50;99.90
20442;DHT22;10380;52.102;20.614;2023-04-01T03:52:39;9.40;99.90
20442;DHT22;10380;52.102;20.614;2023-04-01T03:55:07;9.40;99.90
20442;DHT22;10380;52.102;20.614;2023-04-01T03:57:35;9.40;99.90
20442;DHT22;10380;52.102;20.614;2023-04-01T04:00:03;9.40;99.90
20442;DHT22;10380;52.102;20.614;2023-04-01T04:02:31;9.40;99.90
20442;DHT22;10380;52.102;20.614;2023-04-01T04:04:59;9.40;99.90
20442;DHT22;10380;52.102;20.614;2023-04-01T04:07:26;9.40;99.90
20442;DHT22;10380;52.102;20.614;2023-04-01T04:09:53;9.40;99.90
20442;DHT22;10380;52.102;20.614;2023-04-01T04:12:19;9.40;99.90
20442;DHT22;10380;52.102;20.614;2023-04-01T04:14:46;9.40;99.90
20442;DHT22;10380;52.102;20.614;2023-04-01T04:17:13;9.40;99.90
20442;DHT22;10380;52.102;20.614;2023-04-01T04:19:45;9.30;99.90
20442;DHT22;10380;52.102;20.614;2023-04-01T04:22:15;9.30;99.90
20442;DHT22;10380;52.102;20.614;2023-04-01T04:24:42;9.40;99.90
20442;DHT22;10380;52.102;20.614;2023-04-01T04:27:11;9.30;99.90
20442;DHT22;10380;52.102;20.614;2023-04-01T04:29:40;9.40;99.90
20442;DHT22;10380;52.102;20.614;2023-04-01T04:32:07;9.30;99.90
20442;DHT22;10380;52.102;20.614;2023-04-01T04:34:34;9.40;99.90
20442;DHT22;10380;52.102;20.614;2023-04-01T04:37:02;9.30;99.90
20442;DHT22;10380;52.102;20.614;2023-04-01T04:39:29;9.40;99.90
20442;DHT22;10380;52.102;20.614;2023-04-01T04:41:56;9.40;99.90
20442;DHT22;10380;52.102;20.614;2023-04-01T04:44:24;9.40;99.90
20442;DHT22;10380;52.102;20.614;2023-04-01T04:46:52;9.40;99.90
20442;DHT22;10380;52.102;20.614;2023-04-01T04:49:21;9.40;99.90
20442;DHT22;10380;52.102;20.614;2023-04-01T04:51:48;9.40;99.90
20442;DHT22;10380;52.102;20.614;2023-04-01T04:54:14;9.40;99.90
20442;DHT22;10380;52.102;20.614;2023-04-01T04:56:43;9.50;99.90
20442;DHT22;10380;52.102;20.614;2023-04-01T04:59:11;9.50;99.90
20442;DHT22;10380;52.102;20.614;2023-04-01T05:01:39;9.40;99.90
20442;DHT22;10380;52.102;20.614;2023-04-01T05:04:06;9.50;99.90
20442;DHT22;10380;52.102;20.614;2023-04-01T05:06:33;9.50;99.90
20442;DHT22;10380;52.102;20.614;2023-04-01T05:09:00;9.50;99.90
20442;DHT22;10380;52.102;20.614;2023-04-01T05:11:28;9.50;99.90
20442;DHT22;10380;52.102;20.614;2023-04-01T05:13:55;9.60;99.90
20442;DHT22;10380;52.102;20.614;2023-04-01T05:16:23;9.70;99.90
20442;DHT22;10380;52.102;20.614;2023-04-01T05:18:51;9.70;99.90
20442;DHT22;10380;52.102;20.614;2023-04-01T05:21:20;9.70;99.90
20442;DHT22;10380;52.102;20.614;2023-04-01T05:23:48;9.80;99.90
20442;DHT22;10380;52.102;20.614;2023-04-01T05:26:15;9.80;99.90
20442;DHT22;10380;52.102;20.614;2023-04-01T05:28:42;9.80;99.90
20442;DHT22;10380;52.102;20.614;2023-04-01T05:31:11;9.80;99.90
20442;DHT22;10380;52.102;20.614;2023-04-01T05:33:38;9.90;99.90
20442;DHT22;10380;52.102;20.614;2023-04-01T05:36:15;9.90;99.90
20442;DHT22;10380;52.102;20.614;2023-04-01T05:38:43;10.00;99.90
20442;DHT22;10380;52.102;20.614;2023-04-01T05:41:15;10.00;99.90
20442;DHT22;10380;52.102;20.614;2023-04-01T05:43:42;10.00;99.90
20442;DHT22;10380;52.102;20.614;2023-04-01T05:46:09;10.10;99.90
20442;DHT22;10380;52.102;20.614;2023-04-01T05:48:38;10.10;99.90
20442;DHT22;10380;52.102;20.614;2023-04-01T05:51:13;10.10;99.90
20442;DHT22;10380;52.102;20.614;2023-04-01T05:53:48;10.10;99.90
20442;DHT22;10380;52.102;20.614;2023-04-01T05:56:15;10.20;99.90
20442;DHT22;10380;52.102;20.614;2023-04-01T05:58:42;10.20;99.90
20442;DHT22;10380;52.102;20.614;2023-04-01T06:01:10;10.20;99.90
20442;DHT22;10380;52.102;20.614;2023-04-01T06:03:42;10.20;99.90
20442;DHT22;10380;52.102;20.614;2023-04-01T06:06:25;10.30;99.90
20442;DHT22;10380;52.102;20.614;2023-04-01T06:08:53;10.30;99.90
20442;DHT22;10380;52.102;20.614;2023-04-01T06:14:52;10.30;99.90
20442;DHT22;10380;52.102;20.614;2023-04-01T06:20:26;10.40;99.90
20442;DHT22;10380;52.102;20.614;2023-04-01T06:23:41;10.40;99.90
20442;DHT22;10380;52.102;20.614;2023-04-01T06:26:11;10.60;99.90
20442;DHT22;10380;52.102;20.614;2023-04-01T06:28:52;10.70;99.90
20442;DHT22;10380;52.102;20.614;2023-04-01T06:34:08;10.80;99.90
20442;DHT22;10380;52.102;20.614;2023-04-01T06:37:08;10.80;99.90
20442;DHT22;10380;52.102;20.614;2023-04-01T06:42:15;10.70;99.90
20442;DHT22;10380;52.102;20.614;2023-04-01T06:50:26;10.60;99.90
20442;DHT22;10380;52.102;20.614;2023-04-01T06:53:19;10.50;99.90
20442;DHT22;10380;52.102;20.614;2023-04-01T06:55:59;10.50;99.90
20442;DHT22;10380;52.102;20.614;2023-04-01T06:59:17;10.50;99.90
20442;DHT22;10380;52.102;20.614;2023-04-01T07:01:51;10.50;99.90
20442;DHT22;10380;52.102;20.614;2023-04-01T07:04:31;10.60;99.90
20442;DHT22;10380;52.102;20.614;2023-04-01T07:07:33;10.60;99.90
20442;DHT22;10380;52.102;20.614;2023-04-01T07:10:25;10.70;99.90
20442;DHT22;10380;52.102;20.614;2023-04-01T07:12:57;10.80;99.90
20442;DHT22;10380;52.102;20.614;2023-04-01T07:15:28;10.80;99.90
20442;DHT22;10380;52.102;20.614;2023-04-01T07:18:03;10.80;99.90
20442;DHT22;10380;52.102;20.614;2023-04-01T07:20:44;10.90;99.90
20442;DHT22;10380;52.102;20.614;2023-04-01T07:23:24;10.80;99.90
20442;DHT22;10380;52.102;20.614;2023-04-01T07:25:59;10.80;99.90
20442;DHT22;10380;52.102;20.614;2023-04-01T07:28:31;10.70;99.90
20442;DHT22;10380;52.102;20.614;2023-04-01T07:36:22;10.60;99.90
20442;DHT22;10380;52.102;20.614;2023-04-01T07:39:16;10.60;99.90
20442;DHT22;10380;52.102;20.614;2023-04-01T07:42:09;10.60;99.90
20442;DHT22;10380;52.102;20.614;2023-04-01T07:44:59;10.60;99.90
20442;DHT22;10380;52.102;20.614;2023-04-01T07:50:28;10.60;99.90
20442;DHT22;10380;52.102;20.614;2023-04-01T07:53:29;10.50;99.90
20442;DHT22;10380;52.102;20.614;2023-04-01T07:56:09;10.50;99.90
20442;DHT22;10380;52.102;20.614;2023-04-01T08:05:00;10.50;99.90
20442;DHT22;10380;52.102;20.614;2023-04-01T08:10:45;10.40;99.90
20442;DHT22;10380;52.102;20.614;2023-04-01T08:16:16;10.40;99.90
20442;DHT22;10380;52.102;20.614;2023-04-01T08:21:23;10.40;99.90
20442;DHT22;10380;52.102;20.614;2023-04-01T08:23:57;10.40;99.90
20442;DHT22;10380;52.102;20.614;2023-04-01T08:26:44;10.40;99.90
20442;DHT22;10380;52.102;20.614;2023-04-01T08:29:24;10.50;99.90
20442;DHT22;10380;52.102;20.614;2023-04-01T08:32:22;10.50;99.90
20442;DHT22;10380;52.102;20.614;2023-04-01T08:35:08;10.50;99.90
20442;DHT22;10380;52.102;20.614;2023-04-01T08:37:40;10.40;99.90
20442;DHT22;10380;52.102;20.614;2023-04-01T08:40:55;10.40;99.90
20442;DHT22;10380;52.102;20.614;2023-04-01T08:46:46;10.20;99.90
20442;DHT22;10380;52.102;20.614;2023-04-01T08:58:22;10.00;99.90
20442;DHT22;10380;52.102;20.614;2023-04-01T09:00:58;9.90;99.90
20442;DHT22;10380;52.102;20.614;2023-04-01T09:04:14;9.80;99.90
20442;DHT22;10380;52.102;20.614;2023-04-01T09:24:24;9.40;99.90
20442;DHT22;10380;52.102;20.614;2023-04-01T09:29:54;9.50;99.90
20442;DHT22;10380;52.102;20.614;2023-04-01T09:38:03;9.70;99.90
20442;DHT22;10380;52.102;20.614;2023-04-01T09:47:05;9.80;99.90
20442;DHT22;10380;52.102;20.614;2023-04-01T09:55:51;9.70;99.90
20442;DHT22;10380;52.102;20.614;2023-04-01T10:07:55;9.90;99.90
20442;DHT22;10380;52.102;20.614;2023-04-01T10:10:56;9.90;99.90
20442;DHT22;10380;52.102;20.614;2023-04-01T10:16:45;10.10;99.90
20442;DHT22;10380;52.102;20.614;2023-04-01T10:19:59;10.30;99.90
20442;DHT22;10380;52.102;20.614;2023-04-01T10:26:13;10.60;99.90
20442;DHT22;10380;52.102;20.614;2023-04-01T10:31:27;10.90;99.90
20442;DHT22;10380;52.102;20.614;2023-04-01T10:45:08;11.50;99.90
20442;DHT22;10380;52.102;20.614;2023-04-01T10:59:01;10.80;99.90
20442;DHT22;10380;52.102;20.614;2023-04-01T11:14:02;10.90;99.90
20442;DHT22;10380;52.102;20.614;2023-04-01T11:28:02;11.10;99.90
20442;DHT22;10380;52.102;20.614;2023-04-01T11:33:41;11.20;99.90
20442;DHT22;10380;52.102;20.614;2023-04-01T11:36:28;11.20;99.90
20442;DHT22;10380;52.102;20.614;2023-04-01T11:39:11;11.30;99.90
20442;DHT22;10380;52.102;20.614;2023-04-01T11:44:29;11.50;99.90
20442;DHT22;10380;52.102;20.614;2023-04-01T11:47:22;11.60;99.90
20442;DHT22;10380;52.102;20.614;2023-04-01T12:00:53;12.30;99.90
20442;DHT22;10380;52.102;20.614;2023-04-01T12:09:12;13.00;99.90
20442;DHT22;10380;52.102;20.614;2023-04-01T12:20:18;14.00;99.90
20442;DHT22;10380;52.102;20.614;2023-04-01T12:28:25;15.20;99.90
20442;DHT22;10380;52.102;20.614;2023-04-01T12:36:31;15.60;99.90
20442;DHT22;10380;52.102;20.614;2023-04-01T12:42:01;15.90;99.90
20442;DHT22;10380;52.102;20.614;2023-04-01T12:50:28;16.00;99.90
20442;DHT22;10380;52.102;20.614;2023-04-01T12:53:32;16.00;99.90
20442;DHT22;10380;52.102;20.614;2023-04-01T12:56:14;15.90;99.90
20442;DHT22;10380;52.102;20.614;2023-04-01T12:58:57;16.20;99.90
20442;DHT22;10380;52.102;20.614;2023-04-01T13:04:30;16.80;99.90
20442;DHT22;10380;52.102;20.614;2023-04-01T13:10:06;16.50;99.90
20442;DHT22;10380;52.102;20.614;2023-04-01T13:15:35;15.50;99.90
20442;DHT22;10380;52.102;20.614;2023-04-01T13:20:48;14.50;99.90
20442;DHT22;10380;52.102;20.614;2023-04-01T13:23:23;13.90;99.90
20442;DHT22;10380;52.102;20.614;2023-04-01T13:29:08;12.80;99.90
20442;DHT22;10380;52.102;20.614;2023-04-01T13:31:47;12.50;99.90
20442;DHT22;10380;52.102;20.614;2023-04-01T13:40:02;11.90;99.90
20442;DHT22;10380;52.102;20.614;2023-04-01T13:42:40;11.80;99.90
20442;DHT22;10380;52.102;20.614;2023-04-01T13:45:20;11.70;99.90
20442;DHT22;10380;52.102;20.614;2023-04-01T13:56:48;11.70;99.90
20442;DHT22;10380;52.102;20.614;2023-04-01T13:59:40;11.80;99.90
20442;DHT22;10380;52.102;20.614;2023-04-01T14:02:34;11.80;99.90
20442;DHT22;10380;52.102;20.614;2023-04-01T14:13:16;11.70;99.90
20442;DHT22;10380;52.102;20.614;2023-04-01T14:16:21;11.60;99.90
20442;DHT22;10380;52.102;20.614;2023-04-01T14:19:16;11.60;99.90
20442;DHT22;10380;52.102;20.614;2023-04-01T14:22:03;11.50;99.90
20442;DHT22;10380;52.102;20.614;2023-04-01T14:24:52;11.40;99.90
20442;DHT22;10380;52.102;20.614;2023-04-01T14:44:10;10.70;99.90
20442;DHT22;10380;52.102;20.614;2023-04-01T14:49:47;10.60;99.90
20442;DHT22;10380;52.102;20.614;2023-04-01T14:52:28;10.60;99.90
20442;DHT22;10380;52.102;20.614;2023-04-01T14:54:56;10.50;99.90
20442;DHT22;10380;52.102;20.614;2023-04-01T14:57:29;10.60;99.90
20442;DHT22;10380;52.102;20.614;2023-04-01T15:00:16;10.60;99.90
20442;DHT22;10380;52.102;20.614;2023-04-01T15:11:24;10.80;99.90
20442;DHT22;10380;52.102;20.614;2023-04-01T15:17:19;10.70;99.90
20442;DHT22;10380;52.102;20.614;2023-04-01T15:22:44;10.60;99.90
20442;DHT22;10380;52.102;20.614;2023-04-01T15:25:33;10.50;99.90
20442;DHT22;10380;52.102;20.614;2023-04-01T15:28:25;10.50;99.90
20442;DHT22;10380;52.102;20.614;2023-04-01T15:31:33;10.50;99.90
20442;DHT22;10380;52.102;20.614;2023-04-01T15:34:48;10.50;99.90
20442;DHT22;10380;52.102;20.614;2023-04-01T15:42:32;10.40;99.90
20442;DHT22;10380;52.102;20.614;2023-04-01T15:45:05;10.50;99.90
20442;DHT22;10380;52.102;20.614;2023-04-01T15:47:54;10.50;99.90
20442;DHT22;10380;52.102;20.614;2023-04-01T16:13:32;10.30;99.90
20442;DHT22;10380;52.102;20.614;2023-04-01T16:21:50;10.30;99.90
20442;DHT22;10380;52.102;20.614;2023-04-01T16:24:30;10.30;99.90
20442;DHT22;10380;52.102;20.614;2023-04-01T16:32:37;10.20;99.90
20442;DHT22;10380;52.102;20.614;2023-04-01T16:38:15;10.20;99.90
20442;DHT22;10380;52.102;20.614;2023-04-01T16:41:10;10.20;99.90
20442;DHT22;10380;52.102;20.614;2023-04-01T16:43:42;10.20;99.90
20442;DHT22;10380;52.102;20.614;2023-04-01T16:46:32;10.10;99.90
20442;DHT22;10380;52.102;20.614;2023-04-01T16:51:48;10.10;99.90
20442;DHT22;10380;52.102;20.614;2023-04-01T16:54:35;10.00;99.90
20442;DHT22;10380;52.102;20.614;2023-04-01T16:57:16;10.00;99.90
20442;DHT22;10380;52.102;20.614;2023-04-01T16:59:54;10.00;99.90
20442;DHT22;10380;52.102;20.614;2023-04-01T17:05:40;9.90;99.90
20442;DHT22;10380;52.102;20.614;2023-04-01T17:11:23;9.80;99.90
20442;DHT22;10380;52.102;20.614;2023-04-01T17:22:15;9.70;99.90
20442;DHT22;10380;52.102;20.614;2023-04-01T17:27:28;9.70;99.90
20442;DHT22;10380;52.102;20.614;2023-04-01T17:30:17;9.70;99.90
20442;DHT22;10380;52.102;20.614;2023-04-01T17:42:01;9.70;99.90
20442;DHT22;10380;52.102;20.614;2023-04-01T17:52:53;9.50;99.90
20442;DHT22;10380;52.102;20.614;2023-04-01T17:55:38;9.50;99.90
20442;DHT22;10380;52.102;20.614;2023-04-01T18:17:25;9.40;99.90
20442;DHT22;10380;52.102;20.614;2023-04-01T18:23:02;9.30;99.90
20442;DHT22;10380;52.102;20.614;2023-04-01T18:25:37;9.30;99.90
20442;DHT22;10380;52.102;20.614;2023-04-01T18:28:41;9.30;99.90
20442;DHT22;10380;52.102;20.614;2023-04-01T18:31:18;9.20;99.90
20442;DHT22;10380;52.102;20.614;2023-04-01T18:36:26;9.20;99.90
20442;DHT22;10380;52.102;20.614;2023-04-01T18:39:14;9.20;99.90
20442;DHT22;10380;52.102;20.614;2023-04-01T18:52:42;9.10;99.90
20442;DHT22;10380;52.102;20.614;2023-04-01T18:57:55;9.10;99.90
20442;DHT22;10380;52.102;20.614;2023-04-01T19:00:32;9.10;99.90
20442;DHT22;10380;52.102;20.614;2023-04-01T19:03:22;9.10;99.90
20442;DHT22;10380;52.102;20.614;2023-04-01T19:05:54;9.10;99.90
20442;DHT22;10380;52.102;20.614;2023-04-01T19:08:35;9.00;99.90
20442;DHT22;10380;52.102;20.614;2023-04-01T19:11:31;8.90;99.90
20442;DHT22;10380;52.102;20.614;2023-04-01T19:25:09;8.80;99.90
20442;DHT22;10380;52.102;20.614;2023-04-01T19:27:53;8.90;99.90
20442;DHT22;10380;52.102;20.614;2023-04-01T19:33:30;8.80;99.90
20442;DHT22;10380;52.102;20.614;2023-04-01T19:36:13;8.80;99.90
20442;DHT22;10380;52.102;20.614;2023-04-01T19:41:50;8.80;99.90
20442;DHT22;10380;52.102;20.614;2023-04-01T19:50:22;8.70;99.90
20442;DHT22;10380;52.102;20.614;2023-04-01T19:52:54;8.60;99.90
20442;DHT22;10380;52.102;20.614;2023-04-01T19:55:33;8.60;99.90
20442;DHT22;10380;52.102;20.614;2023-04-01T19:58:20;8.50;99.90
20442;DHT22;10380;52.102;20.614;2023-04-01T20:00:59;8.50;99.90
20442;DHT22;10380;52.102;20.614;2023-04-01T20:03:48;8.40;99.90
20442;DHT22;10380;52.102;20.614;2023-04-01T20:16:53;8.40;99.90
20442;DHT22;10380;52.102;20.614;2023-04-01T20:19:30;8.30;99.90
20442;DHT22;10380;52.102;20.614;2023-04-01T20:22:02;8.40;99.90
20442;DHT22;10380;52.102;20.614;2023-04-01T20:24:49;8.30;99.90
20442;DHT22;10380;52.102;20.614;2023-04-01T20:27:24;8.40;99.90
20442;DHT22;10380;52.102;20.614;2023-04-01T20:39:30;8.30;99.90
20442;DHT22;10380;52.102;20.614;2023-04-01T20:44:13;8.30;99.90
20442;DHT22;10380;52.102;20.614;2023-04-01T20:46:58;8.30;99.90
20442;DHT22;10380;52.102;20.614;2023-04-01T20:49:39;8.20;99.90
20442;DHT22;10380;52.102;20.614;2023-04-01T21:06:51;8.20;99.90
20442;DHT22;10380;52.102;20.614;2023-04-01T21:12:43;8.20;99.90
20442;DHT22;10380;52.102;20.614;2023-04-01T21:15:16;8.20;99.90
20442;DHT22;10380;52.102;20.614;2023-04-01T21:18:30;8.10;99.90
20442;DHT22;10380;52.102;20.614;2023-04-01T21:23:39;8.10;99.90
20442;DHT22;10380;52.102;20.614;2023-04-01T21:29:28;8.20;99.90
20442;DHT22;10380;52.102;20.614;2023-04-01T21:35:08;8.20;99.90
20442;DHT22;10380;52.102;20.614;2023-04-01T22:00:08;8.10;99.90
20442;DHT22;10380;52.102;20.614;2023-04-01T22:11:52;8.00;99.90
20442;DHT22;10380;52.102;20.614;2023-04-01T22:14:42;8.00;99.90
20442;DHT22;10380;52.102;20.614;2023-04-01T22:20:10;7.90;99.90
20442;DHT22;10380;52.102;20.614;2023-04-01T22:25:44;7.90;99.90
20442;DHT22;10380;52.102;20.614;2023-04-01T22:28:21;7.80;99.90
20442;DHT22;10380;52.102;20.614;2023-04-01T22:30:51;7.80;99.90
20442;DHT22;10380;52.102;20.614;2023-04-01T22:36:20;7.90;99.90
20442;DHT22;10380;52.102;20.614;2023-04-01T22:50:18;7.80;99.90
20442;DHT22;10380;52.102;20.614;2023-04-01T22:52:50;7.90;99.90
20442;DHT22;10380;52.102;20.614;2023-04-01T22:55:27;7.80;99.90
20442;DHT22;10380;52.102;20.614;2023-04-01T22:58:00;7.80;99.90
20442;DHT22;10380;52.102;20.614;2023-04-01T23:00:47;7.80;99.90
20442;DHT22;10380;52.102;20.614;2023-04-01T23:05:53;7.80;99.90
20442;DHT22;10380;52.102;20.614;2023-04-01T23:11:10;7.70;99.90
20442;DHT22;10380;52.102;20.614;2023-04-01T23:13:45;7.70;99.90
20442;DHT22;10380;52.102;20.614;2023-04-01T23:16:17;7.70;99.90
20442;DHT22;10380;52.102;20.614;2023-04-01T23:21:38;7.70;99.90
20442;DHT22;10380;52.102;20.614;2023-04-01T23:24:30;7.70;99.90
20442;DHT22;10380;52.102;20.614;2023-04-01T23:27:31;7.70;99.90
20442;DHT22;10380;52.102;20.614;2023-04-01T23:30:02;7.70;99.90
20442;DHT22;10380;52.102;20.614;2023-04-01T23:32:31;7.70;99.90
20442;DHT22;10380;52.102;20.614;2023-04-01T23:34:59;7.70;99.90
20442;DHT22;10380;52.102;20.614;2023-04-01T23:37:27;7.80;99.90
20442;DHT22;10380;52.102;20.614;2023-04-01T23:39:57;7.70;99.90
20442;DHT22;10380;52.102;20.614;2023-04-01T23:42:33;7.70;99.90
20442;DHT22;10380;52.102;20.614;2023-04-01T23:45:13;7.70;99.90
20442;DHT22;10380;52.102;20.614;2023-04-01T23:47:40;7.70;99.90
20442;DHT22;10380;52.102;20.614;2023-04-01T23:50:24;7.70;99.90
20442;DHT22;10380;52.102;20.614;2023-04-01T23:53:05;7.70;99.90
20442;DHT22;10380;52.102;20.614;2023-04-01T23:55:41;7.70;99.90
20442;DHT22;10380;52.102;20.614;2023-04-01T23:58:24;7.60;99.90
